Terminal Aerodrome Forecast
Issued by NWS Austin/San Antonio, TX

Home | Current Version | Previous Version | Text Only | Print | Product List | Glossary On
Versions: 1 2 3 4 5 6 7 8 9 10 11 12 13 14 15 16
000
FTUS44 KEWX 250526
TAFDRT
TAF
KDRT 250526Z 2506/2606 12008KT P6SM SCT250
     FM251600 15012KT P6SM SKC
     FM252300 16011KT P6SM SKC=

USA.gov is the U.S. government's official web portal to all federal, state and local government web resources and services.